createdAt,value
2023-02-11T00:00:40.499Z,3.63
2023-02-11T00:03:08.744Z,3.50
2023-02-11T00:05:36.660Z,3.20
2023-02-11T00:08:04.954Z,2.73
2023-02-11T00:10:32.895Z,3.27
2023-02-11T00:13:02.162Z,3.77
2023-02-11T00:15:30.129Z,2.80
2023-02-11T00:17:58.014Z,3.50
2023-02-11T00:20:25.907Z,3.47
2023-02-11T00:22:53.791Z,3.53
2023-02-11T00:25:21.807Z,3.37
2023-02-11T00:27:49.755Z,3.10
2023-02-11T00:30:19.106Z,3.67
2023-02-11T00:32:46.945Z,3.60
2023-02-11T00:35:14.923Z,2.77
2023-02-11T00:37:43.146Z,3.00
2023-02-11T00:40:12.428Z,2.90
2023-02-11T00:42:40.750Z,3.47
2023-02-11T00:45:09.997Z,3.30
2023-02-11T00:47:39.266Z,3.40
2023-02-11T00:50:08.251Z,3.37
2023-02-11T00:52:36.170Z,3.23
2023-02-11T00:55:04.112Z,3.13
2023-02-11T00:57:32.031Z,3.73
2023-02-11T00:59:59.877Z,3.27
2023-02-11T01:02:27.721Z,3.80
2023-02-11T01:04:58.466Z,3.53
2023-02-11T01:07:26.502Z,3.57
2023-02-11T01:09:54.449Z,4.47
2023-02-11T01:12:22.468Z,3.50
2023-02-11T01:14:50.316Z,3.70
2023-02-11T01:17:18.201Z,4.00
2023-02-11T01:19:46.139Z,4.47
2023-02-11T01:22:15.352Z,4.27
2023-02-11T01:24:43.276Z,3.50
2023-02-11T01:27:11.310Z,4.00
2023-02-11T01:29:39.230Z,3.93
2023-02-11T01:32:07.226Z,4.00
2023-02-11T01:34:35.134Z,4.00
2023-02-11T01:37:02.976Z,3.60
2023-02-11T01:39:34.257Z,3.60
2023-02-11T01:42:02.486Z,4.77
2023-02-11T01:44:33.011Z,4.37
2023-02-11T01:47:01.350Z,4.37
2023-02-11T01:49:31.775Z,4.27
2023-02-11T01:52:03.172Z,5.13
2023-02-11T01:55:08.079Z,4.83
2023-02-11T01:57:38.799Z,5.07
2023-02-11T02:00:12.347Z,5.90
2023-02-11T02:02:49.897Z,6.07
2023-02-11T02:05:24.266Z,5.03
2023-02-11T02:07:59.905Z,5.40
2023-02-11T02:10:31.253Z,5.50
2023-02-11T02:12:59.325Z,6.10
2023-02-11T02:15:30.610Z,5.93
2023-02-11T02:18:07.712Z,6.23
2023-02-11T02:21:11.149Z,6.03
2023-02-11T02:24:00.636Z,5.57
2023-02-11T02:26:55.467Z,5.87
2023-02-11T02:30:14.503Z,5.90
2023-02-11T02:33:21.621Z,5.80
2023-02-11T02:35:57.776Z,5.93
2023-02-11T02:38:29.810Z,6.30
2023-02-11T02:41:02.508Z,6.60
2023-02-11T02:43:32.321Z,5.67
2023-02-11T02:46:12.593Z,5.87
2023-02-11T02:48:41.986Z,5.43
2023-02-11T02:51:31.722Z,5.77
2023-02-11T02:54:10.280Z,5.53
2023-02-11T02:56:43.985Z,6.03
2023-02-11T02:59:35.019Z,6.23
2023-02-11T03:02:12.532Z,5.73
2023-02-11T03:04:49.339Z,5.80
2023-02-11T03:07:25.573Z,5.00
2023-02-11T03:09:59.382Z,5.07
2023-02-11T03:12:30.991Z,5.67
2023-02-11T03:15:00.550Z,5.40
2023-02-11T03:17:30.969Z,5.73
2023-02-11T03:20:01.098Z,5.50
2023-02-11T03:22:34.354Z,6.67
2023-02-11T03:25:03.652Z,5.60
2023-02-11T03:27:40.440Z,5.70
2023-02-11T03:30:16.293Z,5.40
2023-02-11T03:32:51.283Z,5.47
2023-02-11T03:35:24.182Z,5.47
2023-02-11T03:37:56.633Z,5.77
2023-02-11T03:40:27.344Z,5.77
2023-02-11T03:42:59.454Z,5.93
2023-02-11T03:45:28.532Z,6.73
2023-02-11T03:48:00.968Z,5.73
2023-02-11T03:50:33.090Z,6.17
2023-02-11T03:53:03.336Z,6.63
2023-02-11T03:55:34.096Z,6.20
2023-02-11T03:58:02.315Z,6.23
2023-02-11T04:00:34.123Z,7.00
2023-02-11T04:03:02.290Z,6.07
2023-02-11T04:05:31.827Z,6.37
2023-02-11T04:07:59.747Z,6.67
2023-02-11T04:10:27.665Z,6.33
2023-02-11T04:12:55.580Z,5.80
2023-02-11T04:15:23.563Z,6.00
2023-02-11T04:17:51.738Z,6.10
2023-02-11T04:20:20.021Z,6.90
2023-02-11T04:22:49.357Z,6.57
2023-02-11T04:25:17.317Z,6.30
2023-02-11T04:27:45.222Z,6.80
2023-02-11T04:30:14.455Z,6.77
2023-02-11T04:32:42.327Z,6.47
2023-02-11T04:35:10.337Z,6.90
2023-02-11T04:37:38.246Z,6.60
2023-02-11T04:40:08.779Z,6.73
2023-02-11T04:42:36.695Z,7.80
2023-02-11T04:45:04.957Z,7.43
2023-02-11T04:47:32.829Z,7.30
2023-02-11T04:50:00.773Z,7.57
2023-02-11T04:52:28.781Z,7.47
2023-02-11T04:54:56.709Z,7.40
2023-02-11T04:57:25.946Z,7.70
2023-02-11T04:59:53.814Z,6.90
2023-02-11T05:02:21.771Z,7.00
2023-02-11T05:04:49.654Z,7.23
2023-02-11T05:07:17.560Z,8.00
2023-02-11T05:09:45.447Z,7.43
2023-02-11T05:12:13.412Z,7.57
2023-02-11T05:14:42.721Z,7.93
2023-02-11T05:17:10.738Z,7.20
2023-02-11T05:19:38.650Z,7.93
2023-02-11T05:22:06.584Z,7.90
2023-02-11T05:24:34.504Z,7.43
2023-02-11T05:27:03.094Z,8.13
2023-02-11T05:29:31.252Z,8.70
2023-02-11T05:32:01.272Z,7.93
2023-02-11T05:34:29.612Z,8.70
2023-02-11T05:36:57.601Z,7.63
2023-02-11T05:39:25.506Z,8.03
2023-02-11T05:41:53.471Z,8.27
2023-02-11T05:44:21.465Z,8.07
2023-02-11T05:46:50.209Z,8.80
2023-02-11T05:49:19.807Z,8.17
2023-02-11T05:51:47.984Z,7.73
2023-02-11T05:54:15.866Z,8.87
2023-02-11T05:56:45.014Z,8.27
2023-02-11T05:59:14.642Z,9.37
2023-02-11T06:01:42.650Z,8.50
2023-02-11T06:04:10.812Z,9.10
2023-02-11T06:06:40.054Z,9.47
2023-02-11T06:09:08.028Z,9.53
2023-02-11T06:11:35.916Z,8.43
2023-02-11T06:14:03.827Z,9.57
2023-02-11T06:16:31.806Z,8.93
2023-02-11T06:18:59.743Z,8.83
2023-02-11T06:21:42.445Z,8.27
2023-02-11T06:24:13.323Z,9.13
2023-02-11T06:26:41.521Z,8.80
2023-02-11T06:29:09.575Z,9.33
2023-02-11T06:31:39.716Z,8.93
2023-02-11T06:34:07.776Z,8.40
2023-02-11T06:36:36.256Z,7.97
2023-02-11T06:39:04.887Z,9.60
2023-02-11T06:41:34.428Z,9.40
2023-02-11T06:44:02.399Z,9.07
2023-02-11T06:46:30.348Z,9.50
2023-02-11T06:48:58.422Z,9.27
2023-02-11T06:51:26.517Z,10.20
2023-02-11T06:53:54.571Z,9.37
2023-02-11T06:56:27.210Z,9.67
2023-02-11T06:58:57.157Z,9.20
2023-02-11T07:01:26.331Z,9.83
2023-02-11T07:03:54.679Z,10.23
2023-02-11T07:06:24.765Z,9.97
2023-02-11T07:08:52.608Z,9.60
2023-02-11T07:11:24.169Z,9.73
2023-02-11T07:13:53.055Z,9.87
2023-02-11T07:16:22.647Z,10.17
2023-02-11T07:18:51.130Z,10.87
2023-02-11T07:21:21.171Z,9.97
2023-02-11T07:23:49.512Z,10.03
2023-02-11T07:26:19.158Z,11.20
2023-02-11T07:28:47.510Z,10.43
2023-02-11T07:31:18.200Z,10.63
2023-02-11T07:33:47.738Z,11.00
2023-02-11T07:36:17.258Z,11.50
2023-02-11T07:38:45.474Z,10.77
2023-02-11T07:41:15.381Z,11.10
2023-02-11T07:43:43.740Z,10.73
2023-02-11T07:46:13.834Z,11.33
2023-02-11T07:48:41.700Z,10.97
2023-02-11T07:51:13.729Z,10.80
2023-02-11T07:53:41.651Z,11.57
2023-02-11T07:56:10.797Z,11.47
2023-02-11T07:58:42.102Z,11.13
2023-02-11T08:01:12.255Z,11.60
2023-02-11T08:03:41.959Z,11.13
2023-02-11T08:06:13.109Z,11.67
2023-02-11T08:08:41.422Z,11.60
2023-02-11T08:11:11.023Z,11.17
2023-02-11T08:13:39.362Z,11.90
2023-02-11T08:16:08.465Z,11.67
2023-02-11T08:18:37.275Z,11.30
2023-02-11T08:21:06.851Z,11.70
2023-02-11T08:23:37.412Z,11.90
2023-02-11T08:26:06.742Z,13.07
2023-02-11T08:28:37.132Z,12.77
2023-02-11T08:31:07.125Z,13.73
2023-02-11T08:33:35.225Z,12.80
2023-02-11T08:36:03.681Z,12.20
2023-02-11T08:38:31.558Z,12.67
2023-02-11T08:41:02.487Z,12.53
2023-02-11T08:43:30.360Z,12.67
2023-02-11T08:46:00.154Z,11.87
2023-02-11T08:48:30.302Z,12.90
2023-02-11T08:50:58.709Z,12.20
2023-02-11T08:53:28.100Z,12.80
2023-02-11T08:55:56.730Z,12.20
2023-02-11T08:58:26.219Z,12.00
2023-02-11T09:00:54.436Z,12.30
2023-02-11T09:03:22.664Z,12.23
2023-02-11T09:05:53.150Z,13.00
2023-02-11T09:08:21.672Z,12.27
2023-02-11T09:10:50.285Z,12.87
2023-02-11T09:13:18.464Z,13.03
2023-02-11T09:15:48.248Z,11.77
2023-02-11T09:18:16.186Z,12.20
2023-02-11T09:20:44.222Z,13.80
2023-02-11T09:23:12.602Z,12.97
2023-02-11T09:25:41.180Z,12.10
2023-02-11T09:28:10.027Z,12.43
2023-02-11T09:30:39.010Z,11.43
2023-02-11T09:33:08.419Z,11.13
2023-02-11T09:35:36.445Z,11.73
2023-02-11T09:38:04.532Z,11.63
2023-02-11T09:40:32.430Z,10.83
2023-02-11T09:43:08.861Z,10.37
2023-02-11T09:45:37.107Z,10.37
2023-02-11T09:48:14.300Z,9.80
2023-02-11T09:50:45.453Z,9.40
2023-02-11T09:53:19.256Z,9.67
2023-02-11T09:55:49.304Z,9.70
2023-02-11T09:58:22.332Z,9.77
2023-02-11T10:00:58.683Z,9.13
2023-02-11T10:03:43.539Z,8.63
2023-02-11T10:06:37.693Z,9.00
2023-02-11T10:09:19.643Z,9.27
2023-02-11T10:11:59.839Z,9.47
2023-02-11T10:14:47.488Z,8.23
2023-02-11T10:17:27.656Z,8.57
2023-02-11T10:20:09.203Z,8.20
2023-02-11T10:22:42.547Z,8.73
2023-02-11T10:25:21.058Z,7.77
2023-02-11T10:27:49.684Z,8.40
2023-02-11T10:30:27.119Z,7.73
2023-02-11T10:33:01.239Z,7.60
2023-02-11T10:35:30.725Z,7.50
2023-02-11T10:38:00.146Z,8.30
2023-02-11T10:40:30.181Z,7.60
2023-02-11T10:43:02.164Z,7.03
2023-02-11T10:45:34.786Z,7.43
2023-02-11T10:48:06.244Z,7.23
2023-02-11T10:50:37.076Z,7.07
2023-02-11T10:53:14.449Z,7.20
2023-02-11T10:55:52.141Z,7.37
2023-02-11T10:58:29.048Z,7.43
2023-02-11T11:00:59.584Z,6.73
2023-02-11T11:03:30.074Z,6.73
2023-02-11T11:06:01.810Z,7.07
2023-02-11T11:08:41.209Z,6.60
2023-02-11T11:11:11.085Z,6.33
2023-02-11T11:13:40.533Z,6.40
2023-02-11T11:16:24.978Z,6.70
2023-02-11T11:18:54.560Z,6.00
2023-02-11T11:21:37.482Z,6.20
2023-02-11T11:24:06.124Z,6.40
2023-02-11T11:26:43.652Z,6.30
2023-02-11T11:29:16.053Z,6.00
2023-02-11T11:31:51.038Z,6.47
2023-02-11T11:34:25.034Z,6.17
2023-02-11T11:36:55.313Z,5.47
2023-02-11T11:39:26.509Z,6.30
2023-02-11T11:41:57.378Z,5.73
2023-02-11T11:44:28.879Z,5.67
2023-02-11T11:47:16.788Z,6.27
2023-02-11T11:49:49.902Z,6.53
2023-02-11T11:52:27.379Z,5.90
2023-02-11T11:55:02.806Z,6.53
2023-02-11T11:57:39.040Z,6.33
2023-02-11T12:00:14.649Z,6.00
2023-02-11T12:03:07.531Z,6.93
2023-02-11T12:05:43.633Z,6.23
2023-02-11T12:08:21.121Z,6.00
2023-02-11T12:11:02.935Z,6.10
2023-02-11T12:13:47.749Z,5.77
2023-02-11T12:16:26.138Z,5.50
2023-02-11T12:19:26.729Z,5.27
2023-02-11T12:22:02.405Z,6.10
2023-02-11T12:24:51.970Z,5.73
2023-02-11T12:27:29.292Z,5.30
2023-02-11T12:30:07.296Z,5.50
2023-02-11T12:32:43.548Z,5.33
2023-02-11T12:35:32.593Z,5.60
2023-02-11T12:38:18.726Z,5.57
2023-02-11T12:41:00.086Z,5.53
2023-02-11T12:43:35.834Z,5.93
2023-02-11T12:46:18.469Z,6.07
2023-02-11T12:49:07.939Z,5.30
2023-02-11T12:51:53.034Z,5.30
2023-02-11T12:54:28.300Z,4.97
2023-02-11T12:57:03.030Z,4.63
2023-02-11T12:59:39.429Z,4.67
2023-02-11T13:02:17.761Z,4.77
2023-02-11T13:04:50.883Z,4.93
2023-02-11T13:07:24.864Z,4.90
2023-02-11T13:09:58.062Z,4.70
2023-02-11T13:12:48.292Z,5.00
2023-02-11T13:15:17.114Z,4.30
2023-02-11T13:17:54.280Z,4.57
2023-02-11T13:20:32.412Z,4.40
2023-02-11T13:23:08.114Z,4.80
2023-02-11T13:25:44.093Z,3.97
2023-02-11T13:28:26.038Z,4.13
2023-02-11T13:31:02.369Z,4.07
2023-02-11T13:33:35.494Z,4.03
2023-02-11T13:36:27.693Z,4.20
2023-02-11T13:39:01.215Z,4.13
2023-02-11T13:41:35.116Z,4.23
2023-02-11T13:44:27.642Z,3.83
2023-02-11T13:46:59.315Z,4.97
2023-02-11T13:49:35.251Z,4.60
2023-02-11T13:52:05.978Z,5.07
2023-02-11T13:54:38.755Z,4.50
2023-02-11T13:57:30.552Z,4.60
2023-02-11T14:00:01.551Z,4.63
2023-02-11T14:02:50.451Z,4.33
2023-02-11T14:05:42.349Z,3.87
2023-02-11T14:08:36.341Z,4.03
2023-02-11T14:11:12.354Z,4.40
2023-02-11T14:14:23.805Z,3.80
2023-02-11T14:17:35.450Z,3.67
2023-02-11T14:20:05.613Z,4.10
2023-02-11T14:22:45.177Z,3.47
2023-02-11T14:25:23.602Z,3.40
2023-02-11T14:27:57.102Z,3.40
2023-02-11T14:30:46.079Z,3.90
2023-02-11T14:33:47.388Z,3.70
2023-02-11T14:36:29.033Z,3.27
2023-02-11T14:39:03.952Z,3.33
2023-02-11T14:41:36.450Z,3.23
2023-02-11T14:44:07.510Z,3.30
2023-02-11T14:46:36.188Z,3.00
2023-02-11T14:49:07.844Z,3.47
2023-02-11T14:51:39.795Z,3.17
2023-02-11T14:54:17.023Z,3.13
2023-02-11T14:56:46.733Z,3.47
2023-02-11T14:59:18.569Z,3.23
2023-02-11T15:01:50.266Z,3.07
2023-02-11T15:04:27.839Z,3.40
2023-02-11T15:06:59.217Z,3.20
2023-02-11T15:09:33.539Z,3.37
2023-02-11T15:12:01.861Z,3.40
2023-02-11T15:14:31.747Z,3.20
2023-02-11T15:17:03.177Z,3.20
2023-02-11T15:19:35.699Z,3.37
2023-02-11T15:22:06.101Z,3.13
2023-02-11T15:24:36.042Z,3.47
2023-02-11T15:27:11.763Z,2.87
2023-02-11T15:29:42.946Z,2.90
2023-02-11T15:32:17.037Z,3.10
2023-02-11T15:34:47.499Z,2.90
2023-02-11T15:37:18.679Z,2.90
2023-02-11T15:39:46.835Z,2.50
2023-02-11T15:42:44.048Z,2.77
2023-02-11T15:45:28.928Z,2.90
2023-02-11T15:48:01.044Z,2.80
2023-02-11T15:50:32.954Z,3.37
2023-02-11T15:53:04.686Z,3.13
2023-02-11T15:55:32.803Z,2.73
2023-02-11T15:58:02.897Z,3.47
2023-02-11T16:00:36.893Z,3.60
2023-02-11T16:03:05.705Z,2.93
2023-02-11T16:05:37.547Z,2.90
2023-02-11T16:08:20.938Z,3.10
2023-02-11T16:10:58.639Z,3.10
2023-02-11T16:13:30.227Z,2.97
2023-02-11T16:16:01.701Z,3.23
2023-02-11T16:18:38.614Z,2.93
2023-02-11T16:21:16.764Z,3.13
2023-02-11T16:23:51.189Z,2.93
2023-02-11T16:26:28.324Z,3.23
2023-02-11T16:29:07.974Z,3.40
2023-02-11T16:31:39.083Z,3.03
2023-02-11T16:34:17.607Z,3.10
2023-02-11T16:36:47.829Z,3.57
2023-02-11T16:39:16.843Z,3.70
2023-02-11T16:41:45.052Z,3.30
2023-02-11T16:44:13.149Z,3.40
2023-02-11T16:46:41.284Z,3.87
2023-02-11T16:49:12.492Z,3.23
2023-02-11T16:51:42.109Z,3.43
2023-02-11T16:54:16.223Z,3.97
2023-02-11T16:56:44.882Z,3.57
2023-02-11T16:59:13.514Z,4.10
2023-02-11T17:01:43.471Z,4.23
2023-02-11T17:04:16.341Z,4.30
2023-02-11T17:06:44.605Z,4.43
2023-02-11T17:09:18.917Z,4.23
2023-02-11T17:11:47.005Z,4.13
2023-02-11T17:14:15.446Z,4.57
2023-02-11T17:16:43.898Z,4.87
2023-02-11T17:19:13.570Z,4.40
2023-02-11T17:21:43.368Z,4.40
2023-02-11T17:24:11.992Z,4.30
2023-02-11T17:26:41.538Z,4.47
2023-02-11T17:29:11.608Z,4.40
2023-02-11T17:31:40.501Z,4.33
2023-02-11T17:34:09.335Z,4.93
2023-02-11T17:36:37.282Z,4.80
2023-02-11T17:39:08.231Z,5.30
2023-02-11T17:41:38.053Z,4.97
2023-02-11T17:44:08.981Z,4.90
2023-02-11T17:46:37.607Z,5.03
2023-02-11T17:49:05.955Z,4.53
2023-02-11T17:51:35.979Z,5.00
2023-02-11T17:54:08.571Z,4.90
2023-02-11T17:56:37.824Z,5.13
2023-02-11T17:59:08.295Z,5.70
2023-02-11T18:01:38.672Z,5.53
2023-02-11T18:04:08.254Z,5.80
2023-02-11T18:06:36.388Z,5.23
2023-02-11T18:09:04.706Z,5.33
2023-02-11T18:11:34.732Z,5.47
2023-02-11T18:14:03.314Z,5.23
2023-02-11T18:16:34.974Z,5.30
2023-02-11T18:19:03.501Z,6.03
2023-02-11T18:21:31.466Z,6.00
2023-02-11T18:24:05.868Z,5.53
2023-02-11T18:26:34.329Z,5.90
2023-02-11T18:29:03.762Z,6.00
2023-02-11T18:31:33.916Z,5.60
2023-02-11T18:34:02.153Z,5.60
2023-02-11T18:36:30.293Z,5.57
2023-02-11T18:39:00.086Z,6.40
2023-02-11T18:41:28.579Z,6.13
2023-02-11T18:44:02.659Z,6.03
2023-02-11T18:46:32.368Z,5.77
2023-02-11T18:49:00.484Z,5.73
2023-02-11T18:51:28.629Z,5.90
2023-02-11T18:53:56.553Z,6.13
2023-02-11T18:56:25.137Z,6.03
2023-02-11T18:58:54.937Z,5.77
2023-02-11T19:01:25.970Z,5.83
2023-02-11T19:03:57.308Z,5.90
2023-02-11T19:06:27.147Z,6.23
2023-02-11T19:08:59.026Z,6.07
2023-02-11T19:11:41.647Z,6.20
2023-02-11T19:14:10.414Z,6.17
2023-02-11T19:16:38.669Z,6.67
2023-02-11T19:19:08.144Z,6.37
2023-02-11T19:21:36.610Z,6.03
2023-02-11T19:24:08.166Z,7.23
2023-02-11T19:26:36.740Z,6.47
2023-02-11T19:29:05.673Z,6.47
2023-02-11T19:31:34.245Z,6.70
2023-02-11T19:34:04.135Z,7.03
2023-02-11T19:36:33.582Z,5.90
2023-02-11T19:39:01.886Z,6.20
2023-02-11T19:41:30.634Z,6.47
2023-02-11T19:43:59.112Z,6.53
2023-02-11T19:46:29.124Z,6.20
2023-02-11T19:48:58.010Z,6.60
2023-02-11T19:51:26.168Z,6.60
2023-02-11T19:53:55.581Z,6.03
2023-02-11T19:56:23.561Z,6.50
2023-02-11T19:58:51.539Z,6.33
2023-02-11T20:01:22.664Z,6.87
2023-02-11T20:03:51.352Z,5.87
2023-02-11T20:06:23.345Z,6.67
2023-02-11T20:08:58.465Z,6.50
2023-02-11T20:11:28.215Z,6.60
2023-02-11T20:13:56.656Z,6.63
2023-02-11T20:16:40.717Z,6.63
2023-02-11T20:19:17.425Z,6.30
2023-02-11T20:21:47.202Z,6.57
2023-02-11T20:24:17.400Z,6.13
2023-02-11T20:26:46.855Z,6.87
2023-02-11T20:29:15.298Z,6.50
2023-02-11T20:31:43.798Z,6.83
2023-02-11T20:34:12.873Z,6.83
2023-02-11T20:36:41.144Z,6.10
2023-02-11T20:39:09.271Z,6.63
2023-02-11T20:41:40.594Z,6.23
2023-02-11T20:44:11.253Z,6.40
2023-02-11T20:46:41.199Z,6.63
2023-02-11T20:49:10.839Z,6.17
2023-02-11T20:51:39.136Z,6.60
2023-02-11T20:54:08.061Z,6.23
2023-02-11T20:56:39.398Z,6.73
2023-02-11T20:59:07.896Z,6.97
2023-02-11T21:01:38.389Z,6.70
2023-02-11T21:04:08.916Z,7.30
2023-02-11T21:06:39.122Z,6.93
2023-02-11T21:09:08.898Z,7.10
2023-02-11T21:11:38.342Z,6.47
2023-02-11T21:14:06.412Z,6.40
2023-02-11T21:16:34.612Z,6.67
2023-02-11T21:19:03.536Z,6.57
2023-02-11T21:21:31.871Z,6.17
2023-02-11T21:23:59.895Z,6.57
2023-02-11T21:26:28.129Z,6.70
2023-02-11T21:28:57.732Z,6.80
2023-02-11T21:31:28.723Z,6.43
2023-02-11T21:33:59.356Z,5.93
2023-02-11T21:36:28.956Z,6.63
2023-02-11T21:38:56.908Z,7.30
2023-02-11T21:41:25.113Z,7.50
2023-02-11T21:43:53.643Z,6.87
2023-02-11T21:46:23.370Z,6.67
2023-02-11T21:48:52.177Z,9.03
2023-02-11T21:51:22.315Z,9.73
2023-02-11T21:53:54.677Z,9.17
2023-02-11T21:56:23.431Z,7.90
2023-02-11T21:58:54.240Z,6.80
2023-02-11T22:01:25.940Z,8.20
2023-02-11T22:03:54.312Z,7.97
2023-02-11T22:06:26.151Z,7.60
2023-02-11T22:08:55.015Z,6.97
2023-02-11T22:11:23.175Z,7.70
2023-02-11T22:13:55.149Z,7.87
2023-02-11T22:16:25.454Z,7.93
2023-02-11T22:18:53.432Z,7.37
2023-02-11T22:21:23.225Z,8.10
2023-02-11T22:23:51.749Z,7.53
2023-02-11T22:26:21.294Z,8.50
2023-02-11T22:28:50.222Z,8.43
2023-02-11T22:31:19.929Z,8.37
2023-02-11T22:33:49.368Z,7.83
2023-02-11T22:36:19.463Z,8.03
2023-02-11T22:38:47.756Z,8.13
2023-02-11T22:41:15.961Z,8.43
2023-02-11T22:43:44.636Z,8.83
2023-02-11T22:46:14.613Z,7.90
2023-02-11T22:48:42.652Z,8.33
2023-02-11T22:51:13.703Z,7.93
2023-02-11T22:53:42.118Z,7.63
2023-02-11T22:56:15.058Z,8.27
2023-02-11T22:58:43.775Z,8.03
2023-02-11T23:01:12.526Z,8.43
2023-02-11T23:03:40.756Z,8.43
2023-02-11T23:06:09.123Z,8.03
2023-02-11T23:08:39.547Z,8.10
2023-02-11T23:11:09.751Z,7.47
2023-02-11T23:13:39.383Z,8.73
2023-02-11T23:16:09.111Z,8.30
2023-02-11T23:18:38.883Z,8.17
2023-02-11T23:21:11.309Z,8.47
2023-02-11T23:23:41.666Z,7.93
2023-02-11T23:26:11.802Z,8.30
2023-02-11T23:28:40.223Z,8.13
2023-02-11T23:31:16.385Z,8.93
2023-02-11T23:33:44.891Z,8.27
2023-02-11T23:36:13.578Z,8.73
2023-02-11T23:38:43.432Z,8.57
2023-02-11T23:41:12.047Z,8.23
2023-02-11T23:43:40.059Z,8.80
2023-02-11T23:46:08.884Z,8.03
2023-02-11T23:48:37.899Z,8.67
2023-02-11T23:51:06.437Z,8.77
2023-02-11T23:53:34.439Z,8.33
2023-02-11T23:56:08.014Z,8.03
2023-02-11T23:58:35.909Z,8.10
